Time;durP1;ratioP1;P1;durP2;ratioP2;P2;SDS_P1;SDS_P2;PMS_P1;PMS_P2;Temp;Humidity;BMP_temperature;BMP_pressure;BME280_temperature;BME280_humidity;BME280_pressure;Samples;Min_cycle;Max_cycle;Signal;HPM_P1;HPM_P2
2022/01/04 00:01:52;;;;;;;21.33;7.88;;;7.40;99.90;;;;;;5033241;28;20079;-80
2022/01/04 00:04:18;;;;;;;19.95;8.18;;;7.40;99.90;;;;;;5032938;28;20391;-79
2022/01/04 00:06:46;;;;;;;22.63;8.27;;;8.10;99.90;;;;;;5033161;28;20098;-79
2022/01/04 00:09:13;;;;;;;19.40;8.05;;;8.00;99.90;;;;;;5031803;28;20128;-80
2022/01/04 00:11:57;;;;;;;23.10;8.18;;;7.40;99.90;;;;;;5032824;28;20154;-79
2022/01/04 00:14:23;;;;;;;20.65;8.25;;;7.50;99.90;;;;;;5015621;28;20041;-82
2022/01/04 00:16:50;;;;;;;23.13;8.40;;;8.00;99.90;;;;;;5032696;28;20530;-80
2022/01/04 00:19:17;;;;;;;23.65;8.38;;;7.50;99.90;;;;;;5032992;28;20403;-80
2022/01/04 00:21:43;;;;;;;21.42;8.55;;;7.50;99.90;;;;;;5032727;28;20514;-80
2022/01/04 00:24:09;;;;;;;22.20;8.40;;;7.40;99.90;;;;;;5031267;28;20045;-80
2022/01/04 00:26:35;;;;;;;21.70;7.88;;;7.50;99.90;;;;;;5015101;28;20057;-79
2022/01/04 00:29:01;;;;;;;20.52;8.57;;;8.00;99.90;;;;;;5032652;28;20124;-81
2022/01/04 00:31:26;;;;;;;21.92;7.85;;;7.50;99.90;;;;;;5032474;28;20184;-80
2022/01/04 00:33:52;;;;;;;28.20;9.02;;;7.90;99.90;;;;;;5032648;28;20500;-80
2022/01/04 00:36:18;;;;;;;23.23;8.38;;;7.50;99.90;;;;;;5031584;28;20399;-80
2022/01/04 00:38:44;;;;;;;19.13;8.15;;;7.50;99.90;;;;;;5031464;28;20403;-80
2022/01/04 00:41:10;;;;;;;20.23;7.40;;;7.50;99.90;;;;;;5031301;28;20064;-80
2022/01/04 00:43:36;;;;;;;19.25;8.68;;;7.60;99.90;;;;;;5032649;28;20092;-80
2022/01/04 00:46:02;;;;;;;22.58;8.23;;;7.50;99.90;;;;;;5031483;28;20053;-81
2022/01/04 00:50:54;;;;;;;23.33;8.27;;;7.50;99.90;;;;;;5032651;28;20037;-81
2022/01/04 00:53:20;;;;;;;27.75;7.85;;;7.50;99.90;;;;;;5032398;28;20049;-81
2022/01/04 00:55:46;;;;;;;28.85;8.32;;;7.50;99.90;;;;;;5032523;28;20076;-81
2022/01/04 00:58:12;;;;;;;19.45;7.65;;;8.00;99.90;;;;;;5032473;28;20503;-81
2022/01/04 01:00:39;;;;;;;20.08;7.75;;;7.50;99.90;;;;;;5032365;28;20037;-82
2022/01/04 01:03:06;;;;;;;23.30;7.35;;;8.30;99.90;;;;;;5014864;28;20369;-81
2022/01/04 01:05:33;;;;;;;22.90;7.90;;;7.60;99.90;;;;;;5032688;28;20120;-81
2022/01/04 01:07:59;;;;;;;29.88;9.10;;;7.60;99.90;;;;;;5031169;28;20452;-80
2022/01/04 01:10:48;;;;;;;17.23;7.43;;;8.00;99.90;;;;;;5032492;28;20041;-80
2022/01/04 01:13:14;;;;;;;25.05;8.35;;;7.60;99.90;;;;;;5032289;28;20483;-79
2022/01/04 01:15:43;;;;;;;17.75;7.53;;;8.00;99.90;;;;;;5032086;28;20403;-80
2022/01/04 01:18:08;;;;;;;20.90;8.02;;;7.60;99.90;;;;;;5031010;28;20050;-79
2022/01/04 01:20:34;;;;;;;20.90;8.15;;;7.70;99.90;;;;;;5014364;28;20057;-79
2022/01/04 01:23:00;;;;;;;28.70;8.07;;;7.50;99.90;;;;;;5032156;28;20053;-80
2022/01/04 01:25:26;;;;;;;22.65;7.25;;;7.50;99.90;;;;;;5032264;28;20043;-80
2022/01/04 01:27:51;;;;;;;19.02;6.82;;;7.70;99.90;;;;;;5030885;28;20121;-79
2022/01/04 01:30:17;;;;;;;20.77;7.63;;;7.50;99.90;;;;;;5014205;28;20140;-79
2022/01/04 01:32:44;;;;;;;18.83;6.95;;;7.50;99.90;;;;;;5030653;28;20062;-79
2022/01/04 01:35:10;;;;;;;23.63;7.75;;;7.40;99.90;;;;;;5014218;28;20550;-79
2022/01/04 01:37:36;;;;;;;26.02;6.97;;;7.80;99.90;;;;;;5034369;28;20133;-80
2022/01/04 01:40:04;;;;;;;22.08;7.47;;;7.40;99.90;;;;;;5034632;28;20081;-80
2022/01/04 01:42:29;;;;;;;23.75;7.05;;;7.40;99.90;;;;;;5035992;28;20052;-79
2022/01/04 01:44:55;;;;;;;21.52;7.13;;;7.30;99.90;;;;;;5035763;28;20041;-79
2022/01/04 01:47:21;;;;;;;19.60;7.05;;;7.40;99.90;;;;;;5036030;28;20075;-80
2022/01/04 01:49:46;;;;;;;20.33;7.30;;;7.40;99.90;;;;;;5034424;28;20049;-80
2022/01/04 01:52:12;;;;;;;22.95;8.43;;;7.40;99.90;;;;;;5034710;28;20124;-79
2022/01/04 01:54:38;;;;;;;25.23;8.18;;;7.40;99.90;;;;;;5034684;28;20121;-80
2022/01/04 01:57:04;;;;;;;24.60;7.15;;;7.40;99.90;;;;;;5035710;28;20045;-80
2022/01/04 01:59:30;;;;;;;20.27;7.88;;;7.40;99.90;;;;;;5034330;28;20041;-80
2022/01/04 02:01:56;;;;;;;20.50;7.13;;;7.40;99.90;;;;;;5035276;28;20081;-80
2022/01/04 02:04:22;;;;;;;22.83;7.15;;;7.40;99.90;;;;;;5035323;28;20454;-80
2022/01/04 02:06:48;;;;;;;22.73;7.32;;;8.20;99.90;;;;;;5035418;28;20049;-79
2022/01/04 02:09:13;;;;;;;19.30;7.70;;;7.60;99.90;;;;;;5035479;28;20049;-79
2022/01/04 02:11:40;;;;;;;29.83;7.65;;;7.50;99.90;;;;;;5034141;28;20041;-80
2022/01/04 02:14:05;;;;;;;19.45;7.47;;;7.50;99.90;;;;;;5035356;28;20173;-79
2022/01/04 02:16:31;;;;;;;24.02;7.82;;;7.50;99.90;;;;;;5033917;28;20041;-82
2022/01/04 02:19:07;;;;;;;21.95;7.72;;;7.50;99.90;;;;;;5033872;28;20041;-83
2022/01/04 02:21:34;;;;;;;20.30;7.47;;;7.50;99.90;;;;;;5035129;28;20491;-83
2022/01/04 02:24:01;;;;;;;21.48;7.63;;;7.50;99.90;;;;;;5035046;28;20045;-83
2022/01/04 02:26:30;;;;;;;20.63;7.38;;;7.60;99.90;;;;;;5034907;28;20570;-83
2022/01/04 02:28:56;;;;;;;23.58;7.25;;;7.60;99.90;;;;;;5033648;28;20452;-83
2022/01/04 02:31:22;;;;;;;19.92;7.68;;;7.70;99.90;;;;;;5032952;28;20137;-83
2022/01/04 02:33:47;;;;;;;21.80;7.95;;;7.60;99.90;;;;;;5033487;28;20046;-82
2022/01/04 02:36:13;;;;;;;21.13;7.50;;;7.50;99.90;;;;;;5034945;28;20042;-83
2022/01/04 02:38:39;;;;;;;19.67;8.00;;;7.50;99.90;;;;;;5034833;28;20054;-82
2022/01/04 02:41:04;;;;;;;20.92;7.30;;;8.40;99.90;;;;;;5033857;28;20052;-83
2022/01/04 02:43:30;;;;;;;24.98;8.25;;;8.20;99.90;;;;;;5034676;28;20048;-83
2022/01/04 02:45:56;;;;;;;23.75;8.07;;;7.50;99.90;;;;;;5033316;28;20041;-83
2022/01/04 02:48:22;;;;;;;21.70;8.10;;;7.40;99.90;;;;;;5034000;28;20045;-83
2022/01/04 02:50:50;;;;;;;21.45;7.75;;;7.50;99.90;;;;;;5033357;28;20057;-80
2022/01/04 02:53:16;;;;;;;24.35;8.23;;;7.70;99.90;;;;;;5033951;28;20119;-83
2022/01/04 02:55:41;;;;;;;23.88;9.05;;;8.20;99.90;;;;;;5037491;28;20038;-82
2022/01/04 02:58:07;;;;;;;27.40;8.63;;;7.50;99.90;;;;;;5037728;28;20241;-80
2022/01/04 03:00:33;;;;;;;25.58;9.48;;;7.50;99.90;;;;;;5034625;28;20059;-79
2022/01/04 03:02:58;;;;;;;25.08;9.48;;;7.50;99.90;;;;;;5033699;28;20068;-79
2022/01/04 03:05:24;;;;;;;21.45;9.32;;;7.50;99.90;;;;;;5033163;28;20132;-80
2022/01/04 03:07:50;;;;;;;25.40;8.93;;;7.60;99.90;;;;;;5033181;28;20138;-79
2022/01/04 03:10:15;;;;;;;26.48;9.48;;;7.50;99.90;;;;;;5032917;28;20044;-77
2022/01/04 03:12:44;;;;;;;23.88;9.15;;;7.60;99.90;;;;;;5033972;28;20038;-80
2022/01/04 03:15:14;;;;;;;22.85;8.50;;;7.60;99.90;;;;;;5034434;28;20050;-79
2022/01/04 03:17:41;;;;;;;25.67;10.55;;;7.60;99.90;;;;;;5034048;28;20120;-81
2022/01/04 03:20:07;;;;;;;24.17;9.35;;;7.90;99.90;;;;;;5034167;28;20041;-80
2022/01/04 03:22:33;;;;;;;27.98;10.00;;;7.60;99.90;;;;;;5034296;28;20037;-81
2022/01/04 03:24:59;;;;;;;24.58;9.30;;;7.60;99.90;;;;;;5033956;28;20042;-81
2022/01/04 03:27:25;;;;;;;23.05;9.38;;;7.60;99.90;;;;;;5032039;28;20462;-80
2022/01/04 03:29:50;;;;;;;23.75;9.30;;;8.10;99.90;;;;;;5033806;28;20504;-81
2022/01/04 03:32:16;;;;;;;30.33;9.18;;;7.70;99.90;;;;;;5032095;28;20506;-80
2022/01/04 03:34:42;;;;;;;25.67;8.15;;;7.60;99.90;;;;;;5015888;28;20053;-80
2022/01/04 03:37:07;;;;;;;23.85;8.60;;;7.90;99.90;;;;;;5032387;28;20376;-80
2022/01/04 03:39:33;;;;;;;28.05;9.35;;;7.60;99.90;;;;;;5015693;28;20393;-80
2022/01/04 03:41:59;;;;;;;27.67;9.15;;;7.60;99.90;;;;;;5016001;28;20045;-81
2022/01/04 03:44:25;;;;;;;23.75;9.30;;;7.60;99.90;;;;;;5033532;28;20117;-81
2022/01/04 03:46:52;;;;;;;22.42;8.98;;;7.60;99.90;;;;;;5033271;28;20056;-80
2022/01/04 03:49:18;;;;;;;25.08;8.98;;;7.70;99.90;;;;;;5033575;28;20056;-80
2022/01/04 03:51:44;;;;;;;26.63;10.00;;;7.60;99.90;;;;;;5032122;28;20049;-80
2022/01/04 03:54:10;;;;;;;27.70;9.18;;;7.70;99.90;;;;;;5033532;28;20403;-80
2022/01/04 03:56:36;;;;;;;26.40;8.95;;;8.70;99.90;;;;;;5033203;28;20053;-81
2022/01/04 03:59:01;;;;;;;24.88;9.02;;;7.70;99.90;;;;;;5031262;28;20045;-81
2022/01/04 04:01:27;;;;;;;25.58;8.73;;;7.70;99.90;;;;;;5033079;28;20047;-79
2022/01/04 04:03:53;;;;;;;22.92;9.23;;;7.70;99.90;;;;;;5032921;28;20045;-79
2022/01/04 04:06:19;;;;;;;25.30;9.45;;;7.70;99.90;;;;;;5033225;28;20045;-80
2022/01/04 04:08:44;;;;;;;27.80;9.48;;;7.70;99.90;;;;;;5031563;28;20096;-79
2022/01/04 04:11:12;;;;;;;24.35;9.50;;;8.20;99.90;;;;;;5032121;28;20049;-81
2022/01/04 04:13:38;;;;;;;21.75;9.57;;;8.20;99.90;;;;;;5033198;28;20098;-81
2022/01/04 04:16:04;;;;;;;26.58;10.43;;;7.60;99.90;;;;;;5032902;28;20073;-79
2022/01/04 04:18:29;;;;;;;22.92;9.35;;;7.60;99.90;;;;;;5032640;28;20041;-81
2022/01/04 04:20:55;;;;;;;27.08;10.30;;;7.60;99.90;;;;;;5032715;28;20192;-79
2022/01/04 04:23:21;;;;;;;26.98;10.15;;;7.60;99.90;;;;;;5031574;28;20045;-79
2022/01/04 04:25:46;;;;;;;24.95;9.75;;;8.30;99.90;;;;;;5031477;28;20041;-80
2022/01/04 04:28:12;;;;;;;24.05;10.43;;;7.60;99.90;;;;;;5032657;28;20080;-80
2022/01/04 04:30:38;;;;;;;26.73;11.27;;;8.00;99.90;;;;;;5032800;28;20080;-82
2022/01/04 04:33:04;;;;;;;26.60;10.25;;;7.50;99.90;;;;;;5030258;28;20107;-81
2022/01/04 04:35:31;;;;;;;22.50;10.43;;;7.60;99.90;;;;;;5031262;28;20119;-79
2022/01/04 04:37:58;;;;;;;23.30;9.75;;;7.70;99.90;;;;;;5032789;28;20576;-80
2022/01/04 04:40:24;;;;;;;30.38;10.63;;;7.50;99.90;;;;;;5032741;28;20083;-81
2022/01/04 04:42:50;;;;;;;27.38;10.63;;;7.50;99.90;;;;;;5031277;28;20077;-82
2022/01/04 04:45:16;;;;;;;28.60;11.15;;;8.10;99.90;;;;;;5032581;28;20108;-80
2022/01/04 04:47:41;;;;;;;27.92;10.38;;;8.30;99.90;;;;;;5032370;28;20057;-80
2022/01/04 04:50:08;;;;;;;26.02;10.73;;;7.50;99.90;;;;;;5032652;28;20053;-78
2022/01/04 04:52:34;;;;;;;22.77;10.52;;;7.40;99.90;;;;;;5030460;28;20049;-80
2022/01/04 04:54:59;;;;;;;25.25;11.30;;;7.40;99.90;;;;;;5031342;28;20041;-79
2022/01/04 04:57:25;;;;;;;25.05;10.55;;;7.40;99.90;;;;;;5032550;28;20038;-80
2022/01/04 04:59:51;;;;;;;27.00;11.82;;;7.50;99.90;;;;;;5031528;28;20199;-80
2022/01/04 05:02:16;;;;;;;27.35;10.95;;;7.80;99.90;;;;;;5015324;28;20140;-79
2022/01/04 05:04:42;;;;;;;26.27;11.18;;;7.50;99.90;;;;;;5032529;28;20056;-78
2022/01/04 05:07:08;;;;;;;27.48;10.30;;;7.30;99.90;;;;;;5033115;28;20118;-80
2022/01/04 05:09:33;;;;;;;26.77;11.25;;;7.90;99.90;;;;;;5032397;28;20045;-80
2022/01/04 05:11:59;;;;;;;25.52;10.98;;;7.30;99.90;;;;;;5035287;28;20121;-81
2022/01/04 05:14:25;;;;;;;28.17;11.30;;;7.60;99.90;;;;;;5035497;28;20111;-80
2022/01/04 05:16:50;;;;;;;28.20;11.65;;;7.40;99.90;;;;;;5036198;28;20507;-80
2022/01/04 05:19:17;;;;;;;26.38;11.70;;;7.90;99.90;;;;;;5035859;28;20126;-79
2022/01/04 05:21:42;;;;;;;35.63;12.57;;;7.40;99.90;;;;;;5035245;28;20120;-80
2022/01/04 05:24:08;;;;;;;27.30;11.57;;;7.40;99.90;;;;;;5036205;28;20472;-80
2022/01/04 05:26:35;;;;;;;30.63;13.30;;;7.40;99.90;;;;;;5036343;28;20407;-80
2022/01/04 05:29:01;;;;;;;23.20;11.45;;;7.40;99.90;;;;;;5036113;28;20124;-80
2022/01/04 05:31:27;;;;;;;28.27;11.45;;;7.40;99.90;;;;;;5034626;28;20049;-80
2022/01/04 05:33:53;;;;;;;27.08;11.13;;;7.40;99.90;;;;;;5035585;28;20069;-79
2022/01/04 05:36:18;;;;;;;26.90;11.57;;;7.80;99.90;;;;;;5036122;28;20407;-80
2022/01/04 05:38:44;;;;;;;24.92;11.70;;;7.40;99.90;;;;;;5036328;28;20561;-80
2022/01/04 05:41:10;;;;;;;24.77;11.32;;;7.40;99.90;;;;;;5035988;28;20120;-79
2022/01/04 05:43:36;;;;;;;21.98;11.35;;;7.40;99.90;;;;;;5035858;28;20053;-79
2022/01/04 05:46:02;;;;;;;27.23;11.52;;;7.40;99.90;;;;;;5035814;28;20049;-80
2022/01/04 05:48:27;;;;;;;28.35;12.10;;;7.40;99.90;;;;;;5033435;28;20144;-81
2022/01/04 05:50:53;;;;;;;27.08;11.98;;;7.40;99.90;;;;;;5034157;28;20049;-80
2022/01/04 05:53:19;;;;;;;25.90;11.63;;;7.40;99.90;;;;;;5017632;28;20076;-80
2022/01/04 05:55:45;;;;;;;27.23;12.02;;;7.40;99.90;;;;;;5035743;28;20400;-80
2022/01/04 05:58:10;;;;;;;27.88;12.07;;;7.40;99.90;;;;;;5035710;28;20071;-81
2022/01/04 06:00:37;;;;;;;28.13;12.57;;;7.40;99.90;;;;;;5034381;28;20142;-81
2022/01/04 06:03:02;;;;;;;29.42;12.43;;;7.40;99.90;;;;;;5035417;28;20045;-81
2022/01/04 06:05:28;;;;;;;26.55;12.63;;;8.00;99.90;;;;;;5033630;28;20056;-83
2022/01/04 06:07:54;;;;;;;30.40;13.73;;;7.40;99.90;;;;;;5035561;28;20091;-83
2022/01/04 06:10:20;;;;;;;24.73;11.98;;;7.40;99.90;;;;;;5035358;28;20053;-82
2022/01/04 06:15:16;;;;;;;33.35;14.45;;;7.40;99.90;;;;;;5033907;28;20045;-83
2022/01/04 06:17:44;;;;;;;32.88;14.27;;;7.70;99.90;;;;;;5035364;28;20038;-80
2022/01/04 06:20:12;;;;;;;29.13;13.38;;;7.90;99.90;;;;;;5035026;28;20048;-79
2022/01/04 06:22:39;;;;;;;25.00;12.38;;;7.40;99.90;;;;;;5034612;28;20041;-80
2022/01/04 06:25:08;;;;;;;29.67;13.95;;;7.40;99.90;;;;;;5033733;28;20048;-80
2022/01/04 06:27:34;;;;;;;29.23;13.25;;;7.40;99.90;;;;;;5033730;28;20530;-79
2022/01/04 06:30:00;;;;;;;29.75;14.18;;;7.40;99.90;;;;;;5034856;28;20046;-79
2022/01/04 06:32:26;;;;;;;32.13;13.88;;;7.40;99.90;;;;;;5033410;28;20195;-79
2022/01/04 06:34:51;;;;;;;31.75;13.60;;;7.40;99.90;;;;;;5034559;28;20048;-77
2022/01/04 06:37:18;;;;;;;25.98;12.52;;;7.40;99.90;;;;;;5033541;28;20089;-79
2022/01/04 06:39:44;;;;;;;26.20;12.52;;;7.40;99.90;;;;;;5033765;28;20088;-81
2022/01/04 06:42:11;;;;;;;33.20;14.20;;;7.30;99.90;;;;;;5033909;28;20104;-83
2022/01/04 06:44:38;;;;;;;27.40;13.20;;;7.30;99.90;;;;;;5033605;28;20128;-81
2022/01/04 06:47:04;;;;;;;27.85;13.77;;;8.20;99.90;;;;;;5033303;28;20124;-79
2022/01/04 06:49:30;;;;;;;34.08;14.45;;;7.20;99.90;;;;;;5034893;28;20093;-81
2022/01/04 06:51:56;;;;;;;28.55;13.43;;;7.20;99.90;;;;;;5038367;28;20147;-83
2022/01/04 06:54:22;;;;;;;27.10;14.25;;;7.30;99.90;;;;;;5035109;28;20045;-83
2022/01/04 06:56:48;;;;;;;29.50;12.77;;;7.20;99.90;;;;;;5034390;28;20068;-79
2022/01/04 06:59:14;;;;;;;24.67;11.50;;;7.20;99.90;;;;;;5035077;28;20434;-80
2022/01/04 07:01:40;;;;;;;25.83;12.20;;;7.30;99.90;;;;;;5034613;28;20056;-81
2022/01/04 07:04:06;;;;;;;29.58;13.00;;;7.30;99.90;;;;;;5034459;28;20484;-78
2022/01/04 07:06:33;;;;;;;23.00;11.57;;;7.30;99.90;;;;;;5034415;28;20052;-79
2022/01/04 07:08:59;;;;;;;29.10;12.73;;;7.30;99.90;;;;;;5032884;28;20053;-80
2022/01/04 07:11:25;;;;;;;27.50;12.13;;;7.60;99.90;;;;;;5034199;28;20046;-79
2022/01/04 07:13:51;;;;;;;27.00;11.80;;;7.30;99.90;;;;;;5016734;28;20057;-79
2022/01/04 07:16:17;;;;;;;27.27;12.55;;;7.30;99.90;;;;;;5032853;28;20483;-77
2022/01/04 07:18:48;;;;;;;27.88;12.07;;;7.40;99.90;;;;;;5032909;28;20107;-79
2022/01/04 07:21:16;;;;;;;16.73;7.03;;;7.40;99.90;;;;;;5016961;28;20087;-80
2022/01/04 07:23:42;;;;;;;17.35;5.55;;;7.30;99.90;;;;;;5033205;28;20053;-77
2022/01/04 07:26:14;;;;;;;24.42;6.88;;;7.30;99.90;;;;;;5034008;28;20038;-79
2022/01/04 07:28:40;;;;;;;14.83;6.07;;;7.30;99.90;;;;;;5032800;28;20103;-79
2022/01/04 07:31:07;;;;;;;21.48;6.40;;;7.20;99.90;;;;;;5033868;28;20103;-78
2022/01/04 07:33:32;;;;;;;15.25;6.38;;;7.20;99.90;;;;;;5031357;28;20057;-81
2022/01/04 07:35:58;;;;;;;17.40;5.75;;;7.20;99.90;;;;;;5033456;28;20056;-79
2022/01/04 07:38:24;;;;;;;17.65;5.82;;;7.20;99.90;;;;;;5033558;28;20045;-79
2022/01/04 07:40:49;;;;;;;16.20;5.45;;;7.20;99.90;;;;;;5032410;28;20050;-79
2022/01/04 07:43:15;;;;;;;17.33;6.50;;;7.20;99.90;;;;;;5033897;28;20522;-79
2022/01/04 07:45:41;;;;;;;15.00;6.60;;;7.20;99.90;;;;;;5032250;28;20056;-79
2022/01/04 07:48:10;;;;;;;18.10;5.97;;;7.40;99.90;;;;;;5032270;28;20075;-80
2022/01/04 07:50:38;;;;;;;18.55;6.72;;;7.20;99.90;;;;;;5015570;28;20056;-79
2022/01/04 07:53:04;;;;;;;18.88;6.18;;;7.30;99.90;;;;;;5031858;28;20068;-79
2022/01/04 07:55:30;;;;;;;21.90;6.38;;;7.20;99.90;;;;;;5033313;28;20045;-79
2022/01/04 07:57:56;;;;;;;19.55;6.22;;;7.20;99.90;;;;;;5032007;28;20063;-79
2022/01/04 08:00:21;;;;;;;16.15;5.63;;;7.20;99.90;;;;;;5033223;28;20073;-78
2022/01/04 08:02:47;;;;;;;13.25;5.30;;;7.20;99.90;;;;;;5031891;28;20462;-79
2022/01/04 08:05:13;;;;;;;13.60;5.60;;;7.30;99.90;;;;;;5032986;28;20053;-80
2022/01/04 08:07:39;;;;;;;17.95;6.00;;;7.30;99.90;;;;;;5033041;28;20049;-79
2022/01/04 08:10:05;;;;;;;17.00;5.70;;;7.40;99.90;;;;;;5033250;28;20073;-79
2022/01/04 08:12:31;;;;;;;16.08;6.35;;;7.30;99.90;;;;;;5033148;28;20041;-80
2022/01/04 08:14:57;;;;;;;24.33;7.07;;;7.80;99.90;;;;;;5032905;28;20053;-79
2022/01/04 08:17:23;;;;;;;24.05;6.20;;;7.90;99.90;;;;;;5032984;28;20514;-79
2022/01/04 08:19:51;;;;;;;16.33;6.32;;;7.30;99.90;;;;;;5032722;28;20064;-79
2022/01/04 08:22:17;;;;;;;20.02;6.55;;;7.30;99.90;;;;;;5032653;28;20495;-80
2022/01/04 08:24:42;;;;;;;19.80;6.10;;;7.30;99.90;;;;;;5033060;28;20041;-81
2022/01/04 08:27:08;;;;;;;16.58;5.40;;;7.30;99.90;;;;;;5031641;28;20136;-79
2022/01/04 08:29:34;;;;;;;17.48;6.40;;;7.30;99.90;;;;;;5032955;28;20042;-79
2022/01/04 08:32:00;;;;;;;17.27;6.25;;;8.00;99.90;;;;;;5032463;28;20100;-78
2022/01/04 08:34:26;;;;;;;14.93;5.15;;;7.80;99.90;;;;;;5032458;28;20186;-78
2022/01/04 08:36:51;;;;;;;19.95;6.25;;;7.30;99.90;;;;;;5032369;28;20135;-77
2022/01/04 08:39:17;;;;;;;14.18;5.05;;;7.40;99.90;;;;;;5031370;28;20099;-79
2022/01/04 08:41:45;;;;;;;16.95;5.45;;;7.30;99.90;;;;;;5032860;28;20116;-78
2022/01/04 08:44:12;;;;;;;14.23;4.72;;;7.30;99.90;;;;;;5032930;28;20037;-79
2022/01/04 08:46:38;;;;;;;14.73;5.68;;;7.30;99.90;;;;;;5031107;28;20057;-78
2022/01/04 08:49:08;;;;;;;13.90;5.57;;;7.50;99.90;;;;;;5032632;28;20049;-79
2022/01/04 08:51:36;;;;;;;16.88;5.57;;;7.40;99.90;;;;;;5032101;28;20053;-78
2022/01/04 08:54:04;;;;;;;26.63;7.47;;;7.40;99.90;;;;;;5032476;28;20041;-78
2022/01/04 08:56:30;;;;;;;18.38;4.55;;;7.40;99.90;;;;;;5031262;28;20050;-77
2022/01/04 08:58:56;;;;;;;14.50;4.43;;;7.30;99.90;;;;;;5032663;28;20446;-77
2022/01/04 09:01:22;;;;;;;9.68;3.90;;;7.20;99.90;;;;;;5031592;28;20502;-78
2022/01/04 09:03:48;;;;;;;11.90;3.17;;;7.20;99.90;;;;;;5032443;28;20041;-78
2022/01/04 09:06:14;;;;;;;6.88;2.20;;;8.30;99.90;;;;;;5032383;28;20050;-79
2022/01/04 09:08:39;;;;;;;7.05;1.65;;;7.00;99.90;;;;;;5031444;28;20121;-77
2022/01/04 09:11:05;;;;;;;8.85;1.48;;;6.90;99.90;;;;;;5033111;28;20049;-77
2022/01/04 09:13:39;;;;;;;5.93;1.60;;;6.80;99.90;;;;;;5031222;28;20403;-76
2022/01/04 09:18:45;;;;;;;4.90;1.42;;;6.60;99.90;;;;;;5032809;28;20057;-85
2022/01/04 09:21:13;;;;;;;6.97;1.55;;;7.40;99.90;;;;;;5031242;28;20046;-84
2022/01/04 09:23:39;;;;;;;6.30;1.60;;;6.60;99.90;;;;;;5032225;28;20498;-80
2022/01/04 09:26:05;;;;;;;6.80;1.60;;;6.60;99.90;;;;;;5032384;28;20045;-85
2022/01/04 09:28:31;;;;;;;5.03;1.38;;;6.60;99.90;;;;;;5032311;28;20103;-80
2022/01/04 09:30:57;;;;;;;9.23;2.60;;;7.30;99.90;;;;;;5032200;28;20081;-83
2022/01/04 09:33:23;;;;;;;7.30;2.20;;;6.70;99.90;;;;;;5031731;28;20060;-82
2022/01/04 09:35:50;;;;;;;8.23;2.35;;;6.70;99.90;;;;;;5030743;28;20158;-85
2022/01/04 09:38:17;;;;;;;8.45;2.75;;;6.70;99.90;;;;;;5030728;28;20557;-80
2022/01/04 09:40:43;;;;;;;9.43;2.30;;;6.70;99.90;;;;;;5032368;28;20381;-84
2022/01/04 09:43:09;;;;;;;13.38;3.08;;;6.80;99.90;;;;;;5032006;28;20052;-76
2022/01/04 09:45:35;;;;;;;8.82;3.08;;;6.80;99.90;;;;;;5014116;28;20049;-83
2022/01/04 09:48:01;;;;;;;8.50;2.80;;;6.80;99.90;;;;;;5031720;28;20038;-82
2022/01/04 09:50:27;;;;;;;11.52;3.63;;;6.80;99.90;;;;;;5031757;28;20384;-84
2022/01/04 09:52:56;;;;;;;11.10;3.08;;;6.90;99.90;;;;;;5030954;28;20049;-85
2022/01/04 09:55:22;;;;;;;9.30;3.10;;;6.90;99.90;;;;;;5032191;28;20041;-85
2022/01/04 09:57:49;;;;;;;13.32;3.85;;;6.90;99.90;;;;;;5032801;28;20115;-85
2022/01/04 10:00:17;;;;;;;8.93;2.50;;;7.60;99.90;;;;;;5035533;28;20042;-78
2022/01/04 10:02:46;;;;;;;6.28;2.20;;;7.00;99.90;;;;;;5035467;28;20037;-85
2022/01/04 10:05:21;;;;;;;7.57;1.63;;;7.00;99.90;;;;;;5034279;28;20074;-79
2022/01/04 10:07:58;;;;;;;9.15;2.00;;;7.00;99.90;;;;;;5035883;28;20041;-80
2022/01/04 10:10:24;;;;;;;4.93;1.65;;;7.00;99.90;;;;;;5036023;28;20042;-85
2022/01/04 10:12:55;;;;;;;6.07;1.58;;;7.00;99.90;;;;;;5035928;28;20125;-83
2022/01/04 10:15:42;;;;;;;4.30;1.48;;;7.00;99.90;;;;;;5036060;28;20045;-81
2022/01/04 10:18:14;;;;;;;9.63;1.58;;;7.60;99.90;;;;;;5035366;28;20045;-84
2022/01/04 10:21:06;;;;;;;4.47;1.50;;;7.00;99.90;;;;;;5034018;28;20046;-85
2022/01/04 10:23:53;;;;;;;6.53;1.93;;;6.90;99.90;;;;;;4938626;29;20502;-78
2022/01/04 10:26:37;;;;;;;7.00;2.08;;;6.90;99.90;;;;;;4939127;29;20341;-83
2022/01/04 10:29:20;;;;;;;2.50;0.98;;;6.90;99.90;;;;;;4922626;29;20059;-77
2022/01/04 10:31:47;;;;;;;7.70;1.08;;;6.90;99.90;;;;;;4955476;29;20040;-83
2022/01/04 10:34:12;;;;;;;5.47;1.30;;;6.90;99.90;;;;;;4938443;29;20055;-80
2022/01/04 10:36:39;;;;;;;1.75;0.88;;;6.90;99.90;;;;;;4954494;29;20106;-84
2022/01/04 10:39:09;;;;;;;4.10;0.70;;;6.80;99.90;;;;;;4954632;29;20441;-84
2022/01/04 10:41:35;;;;;;;1.60;0.60;;;6.70;99.90;;;;;;4938564;29;20413;-85
2022/01/04 10:44:10;;;;;;;1.00;0.50;;;6.60;99.90;;;;;;4954559;29;20123;-83
2022/01/04 10:46:41;;;;;;;5.68;0.98;;;6.50;99.90;;;;;;4954601;29;20410;-84
2022/01/04 10:49:24;;;;;;;3.83;0.63;;;6.50;99.90;;;;;;4945222;28;20070;-85
2022/01/04 10:52:10;;;;;;;2.35;1.00;;;6.50;99.90;;;;;;4943158;29;20051;-83
2022/01/04 10:54:36;;;;;;;1.38;0.50;;;6.40;99.90;;;;;;4940771;29;20115;-81
2022/01/04 10:57:06;;;;;;;2.45;0.63;;;6.40;99.90;;;;;;4939406;29;20219;-78
2022/01/04 10:59:31;;;;;;;4.95;0.93;;;6.30;99.90;;;;;;4968908;28;20052;-81
2022/01/04 11:01:58;;;;;;;4.03;1.08;;;6.30;99.90;;;;;;5035019;28;20458;-82
2022/01/04 11:04:24;;;;;;;5.97;0.80;;;6.90;99.90;;;;;;5033130;28;20037;-84
2022/01/04 11:06:57;;;;;;;3.95;1.50;;;6.40;99.90;;;;;;5032714;28;20130;-81
2022/01/04 11:09:22;;;;;;;2.83;1.08;;;6.40;99.90;;;;;;5032789;28;20160;-80
2022/01/04 11:11:48;;;;;;;1.73;0.68;;;6.40;99.90;;;;;;5032500;28;20128;-79
2022/01/04 11:14:14;;;;;;;1.60;0.63;;;6.30;99.90;;;;;;5034122;28;20072;-78
2022/01/04 11:16:40;;;;;;;2.65;0.80;;;6.30;99.90;;;;;;5034342;28;20046;-78
2022/01/04 11:19:07;;;;;;;5.70;1.20;;;6.30;99.90;;;;;;5033103;28;20046;-78
2022/01/04 11:21:38;;;;;;;5.30;0.98;;;6.30;99.90;;;;;;5034008;28;20565;-78
2022/01/04 11:24:06;;;;;;;5.53;0.90;;;6.90;99.90;;;;;;5034138;28;20049;-80
2022/01/04 11:26:33;;;;;;;4.00;1.00;;;6.30;99.90;;;;;;5034283;28;20049;-78
2022/01/04 11:28:59;;;;;;;3.42;0.88;;;6.20;99.90;;;;;;5033889;28;20045;-78
2022/01/04 11:31:49;;;;;;;5.15;1.00;;;6.20;99.90;;;;;;5032738;28;20045;-79
2022/01/04 11:34:24;;;;;;;6.28;0.88;;;6.10;99.90;;;;;;5032424;28;20053;-79
2022/01/04 11:36:51;;;;;;;2.00;0.73;;;6.00;99.90;;;;;;5032416;28;20515;-79
2022/01/04 11:39:26;;;;;;;4.30;1.00;;;6.00;99.90;;;;;;5033598;28;20045;-79
2022/01/04 11:41:53;;;;;;;4.50;0.70;;;5.90;99.90;;;;;;5033608;28;20045;-79
2022/01/04 11:44:23;;;;;;;3.40;0.50;;;6.50;99.90;;;;;;5032265;28;20479;-78
2022/01/04 11:47:11;;;;;;;12.30;6.15;;;5.80;99.90;;;;;;5033632;28;20080;-79
2022/01/04 11:49:39;;;;;;;4.47;0.65;;;5.80;99.90;;;;;;5033374;28;20556;-79
2022/01/04 11:52:09;;;;;;;4.43;1.17;;;5.80;99.90;;;;;;5031854;28;20077;-79
2022/01/04 11:54:35;;;;;;;2.85;0.70;;;6.40;99.90;;;;;;5033242;28;20559;-79
2022/01/04 11:57:17;;;;;;;2.95;0.85;;;5.90;99.90;;;;;;5033224;28;20175;-78
2022/01/04 11:59:46;;;;;;;1.98;0.70;;;5.90;99.90;;;;;;5031694;28;20507;-79
2022/01/04 12:02:37;;;;;;;5.28;1.80;;;5.90;99.90;;;;;;5033238;28;20083;-79
2022/01/04 12:05:22;;;;;;;0.98;0.50;;;5.80;99.90;;;;;;5033532;28;20049;-79
2022/01/04 12:07:49;;;;;;;3.60;0.50;;;5.80;99.90;;;;;;5033066;28;20045;-77
2022/01/04 12:10:18;;;;;;;4.60;1.10;;;5.70;99.90;;;;;;5033292;28;20041;-79
2022/01/04 12:12:57;;;;;;;9.60;1.00;;;5.70;99.90;;;;;;5033082;28;20041;-79
2022/01/04 12:15:34;;;;;;;3.10;0.77;;;5.60;99.90;;;;;;5032843;28;20099;-78
2022/01/04 12:18:01;;;;;;;2.38;0.80;;;6.00;99.90;;;;;;5033046;28;20187;-79
2022/01/04 12:20:42;;;;;;;1.27;0.50;;;5.60;99.90;;;;;;5030877;28;20060;-79
2022/01/04 12:23:26;;;;;;;2.83;1.08;;;5.60;99.90;;;;;;5032910;28;20049;-79
2022/01/04 12:26:12;;;;;;;5.95;1.13;;;5.50;99.90;;;;;;5033099;28;20053;-79
2022/01/04 12:28:39;;;;;;;2.78;1.10;;;5.40;99.90;;;;;;5033063;28;20049;-79
2022/01/04 12:31:13;;;;;;;2.58;0.70;;;5.30;99.90;;;;;;5033307;28;20037;-81
2022/01/04 12:33:42;;;;;;;3.15;0.52;;;5.20;99.90;;;;;;5031316;28;20053;-79
2022/01/04 12:36:08;;;;;;;2.00;0.50;;;5.10;99.90;;;;;;5032487;28;20120;-79
2022/01/04 12:38:35;;;;;;;2.25;0.57;;;5.10;99.90;;;;;;5032880;28;20376;-79
2022/01/04 12:41:01;;;;;;;4.63;0.80;;;5.60;99.90;;;;;;5031093;28;20132;-79
2022/01/04 12:43:28;;;;;;;2.22;0.77;;;5.10;99.90;;;;;;5032571;28;20053;-78
2022/01/04 12:45:58;;;;;;;4.47;1.00;;;6.00;99.90;;;;;;5032817;28;20087;-79
2022/01/04 12:48:47;;;;;;;4.93;1.05;;;6.20;99.90;;;;;;5032606;28;20045;-79
2022/01/04 12:51:33;;;;;;;4.03;0.90;;;5.20;99.90;;;;;;5032833;28;20045;-79
2022/01/04 12:54:07;;;;;;;2.83;0.90;;;5.30;99.90;;;;;;5018655;28;20491;-79
2022/01/04 12:56:43;;;;;;;5.45;1.10;;;5.30;99.90;;;;;;5032540;28;20095;-79
2022/01/04 12:59:18;;;;;;;4.55;1.38;;;5.40;99.90;;;;;;5032441;28;20060;-80